Airfield :
LOGIN :

Register | Disclaimer

   EN    FR    IT 

 










Legend :    VFR   Marginal VFR   IFR   Intensive IFR   Very Intensive IFR
Visi :
Ceiling :
>= 8 km
>= 3000ft
5 to 8 km
1000 to 3000 ft
1500m to 5 km
500 to 1000 ft
800 to 1500m
200 to 500 ft
< 800m
< 200 ft
Symbols :   Thunderstorms  Fog  Heavy snow  Heavy precipitations  Wind > 20 kt
SIGMETs :     Misc.  Thunderstorms  Icing  Turbulence  Mountain Waves  Volcanic Ashes






- Airport Elevation : 2001 ft
- IATA code : MAD


LEMD - Madrid

CURRENT METAR :
  • 161030Z 03004KT 330V110 9999 SCT042 12/04 Q1017 NOSIG

EXPIRED METARs :
  • 161000Z 36004KT 300V040 9999 FEW027 BKN039 12/05 Q1017 NOSIG
  • 160930Z 03004KT 350V120 9999 SCT035 BKN040 12/03 Q1017 NOSIG
  • 160900Z 07005KT 020V150 9999 BKN032 11/02 Q1017 NOSIG
  • 160830Z 06006KT 010V110 9999 FEW020 BKN030 11/02 Q1017 NOSIG
  • 160800Z 09004KT 030V150 9999 SCT029 BKN038 BKN046 11/04 Q1017 NOSIG

TAF TAF LEMD
Valid from the 16 at 06:00 until the 17 at 12:00 UTC


160500Z 1606/1712 VRB05KT 9999 SCT030 TX17/1615Z TN02/1706Z
PROB30
TEMPO 1606/1609 4000 DZRA BKN014
BECMG 1616/1618 02010KT



MET'MAP, your aeronautical weather chart ! - Copyright ORBIFLY December 2007 - Disclaimer

ORBIFLY MET'MAP TEAM :

Programming & Development : Alexandra Zaïnal
Concept & original design : Baudouin d'Aumeries
Assistance for programming : Marc-Olivier Méhu
Technical & hardware support : Manuel Goepfert

Contact : metmap@orbifly.com




SOURCES & CREDITS :

   NOAA